sensor_id;sensor_type;location;lat;lon;timestamp;P1;durP1;ratioP1;P2;durP2;ratioP2
21438;SDS011;10880;50.302;18.736;2022-09-17T00:01:03;2.63;;;2.43;;
21438;SDS011;10880;50.302;18.736;2022-09-17T00:03:30;3.13;;;2.60;;
21438;SDS011;10880;50.302;18.736;2022-09-17T00:05:59;4.03;;;2.80;;
21438;SDS011;10880;50.302;18.736;2022-09-17T00:08:30;3.00;;;2.70;;
21438;SDS011;10880;50.302;18.736;2022-09-17T00:10:57;4.03;;;2.60;;
21438;SDS011;10880;50.302;18.736;2022-09-17T00:13:30;2.93;;;2.60;;
21438;SDS011;10880;50.302;18.736;2022-09-17T00:15:56;3.50;;;2.70;;
21438;SDS011;10880;50.302;18.736;2022-09-17T00:18:23;2.87;;;2.63;;
21438;SDS011;10880;50.302;18.736;2022-09-17T00:20:49;3.30;;;2.83;;
21438;SDS011;10880;50.302;18.736;2022-09-17T00:23:15;2.70;;;2.50;;
21438;SDS011;10880;50.302;18.736;2022-09-17T00:25:42;4.20;;;3.20;;
21438;SDS011;10880;50.302;18.736;2022-09-17T00:28:10;2.93;;;2.63;;
21438;SDS011;10880;50.302;18.736;2022-09-17T00:30:39;2.90;;;2.60;;
21438;SDS011;10880;50.302;18.736;2022-09-17T00:33:07;2.93;;;2.63;;
21438;SDS011;10880;50.302;18.736;2022-09-17T00:35:35;3.13;;;2.83;;
21438;SDS011;10880;50.302;18.736;2022-09-17T00:38:02;3.30;;;2.80;;
21438;SDS011;10880;50.302;18.736;2022-09-17T00:40:28;2.70;;;2.50;;
21438;SDS011;10880;50.302;18.736;2022-09-17T00:42:55;3.00;;;2.57;;
21438;SDS011;10880;50.302;18.736;2022-09-17T00:45:21;3.03;;;2.70;;
21438;SDS011;10880;50.302;18.736;2022-09-17T00:47:58;2.87;;;2.43;;
21438;SDS011;10880;50.302;18.736;2022-09-17T00:50:28;3.17;;;2.87;;
21438;SDS011;10880;50.302;18.736;2022-09-17T00:53:08;3.10;;;2.73;;
21438;SDS011;10880;50.302;18.736;2022-09-17T00:55:58;2.67;;;2.47;;
21438;SDS011;10880;50.302;18.736;2022-09-17T00:58:36;3.30;;;2.70;;
21438;SDS011;10880;50.302;18.736;2022-09-17T01:01:04;4.10;;;2.37;;
21438;SDS011;10880;50.302;18.736;2022-09-17T01:03:31;2.97;;;2.63;;
21438;SDS011;10880;50.302;18.736;2022-09-17T01:06:04;3.70;;;2.80;;
21438;SDS011;10880;50.302;18.736;2022-09-17T01:11:23;3.47;;;2.63;;
21438;SDS011;10880;50.302;18.736;2022-09-17T01:22:05;2.50;;;2.30;;
21438;SDS011;10880;50.302;18.736;2022-09-17T01:27:31;2.63;;;2.43;;
21438;SDS011;10880;50.302;18.736;2022-09-17T01:41:11;2.40;;;2.03;;
21438;SDS011;10880;50.302;18.736;2022-09-17T01:43:48;2.63;;;2.43;;
21438;SDS011;10880;50.302;18.736;2022-09-17T01:48:57;2.13;;;1.93;;
21438;SDS011;10880;50.302;18.736;2022-09-17T01:51:28;2.00;;;1.90;;
21438;SDS011;10880;50.302;18.736;2022-09-17T01:54:08;2.27;;;2.00;;
21438;SDS011;10880;50.302;18.736;2022-09-17T01:56:44;2.13;;;1.93;;
21438;SDS011;10880;50.302;18.736;2022-09-17T01:59:24;2.30;;;2.10;;
21438;SDS011;10880;50.302;18.736;2022-09-17T02:01:58;2.20;;;2.00;;
21438;SDS011;10880;50.302;18.736;2022-09-17T02:04:32;2.70;;;2.50;;
21438;SDS011;10880;50.302;18.736;2022-09-17T02:07:11;2.57;;;2.37;;
21438;SDS011;10880;50.302;18.736;2022-09-17T02:09:49;2.40;;;2.20;;
21438;SDS011;10880;50.302;18.736;2022-09-17T02:12:39;2.27;;;2.07;;
21438;SDS011;10880;50.302;18.736;2022-09-17T02:15:23;2.80;;;2.20;;
21438;SDS011;10880;50.302;18.736;2022-09-17T02:18:02;2.37;;;2.20;;
21438;SDS011;10880;50.302;18.736;2022-09-17T02:20:49;2.70;;;2.50;;
21438;SDS011;10880;50.302;18.736;2022-09-17T02:23:30;1.90;;;1.80;;
21438;SDS011;10880;50.302;18.736;2022-09-17T02:26:03;1.90;;;1.80;;
21438;SDS011;10880;50.302;18.736;2022-09-17T02:28:39;2.70;;;2.20;;
21438;SDS011;10880;50.302;18.736;2022-09-17T02:31:18;2.33;;;2.13;;
21438;SDS011;10880;50.302;18.736;2022-09-17T02:33:48;2.10;;;2.00;;
21438;SDS011;10880;50.302;18.736;2022-09-17T02:36:17;2.07;;;1.97;;
21438;SDS011;10880;50.302;18.736;2022-09-17T02:38:44;2.20;;;2.00;;
21438;SDS011;10880;50.302;18.736;2022-09-17T02:41:19;2.07;;;1.97;;
21438;SDS011;10880;50.302;18.736;2022-09-17T02:43:56;2.13;;;2.00;;
21438;SDS011;10880;50.302;18.736;2022-09-17T02:49:39;2.17;;;2.07;;
21438;SDS011;10880;50.302;18.736;2022-09-17T02:55:17;1.80;;;1.70;;
21438;SDS011;10880;50.302;18.736;2022-09-17T02:57:59;1.90;;;1.80;;
21438;SDS011;10880;50.302;18.736;2022-09-17T03:00:44;2.00;;;1.80;;
21438;SDS011;10880;50.302;18.736;2022-09-17T03:03:22;2.20;;;2.00;;
21438;SDS011;10880;50.302;18.736;2022-09-17T03:05:57;2.20;;;2.00;;
21438;SDS011;10880;50.302;18.736;2022-09-17T03:08:28;2.10;;;1.90;;
21438;SDS011;10880;50.302;18.736;2022-09-17T03:10:57;1.90;;;1.80;;
21438;SDS011;10880;50.302;18.736;2022-09-17T03:13:24;1.90;;;1.80;;
21438;SDS011;10880;50.302;18.736;2022-09-17T03:15:53;2.50;;;2.30;;
21438;SDS011;10880;50.302;18.736;2022-09-17T03:18:20;2.27;;;2.17;;
21438;SDS011;10880;50.302;18.736;2022-09-17T03:20:46;1.97;;;1.87;;
21438;SDS011;10880;50.302;18.736;2022-09-17T03:23:14;1.87;;;1.77;;
21438;SDS011;10880;50.302;18.736;2022-09-17T03:25:40;1.80;;;1.70;;
21438;SDS011;10880;50.302;18.736;2022-09-17T03:28:09;2.30;;;2.10;;
21438;SDS011;10880;50.302;18.736;2022-09-17T03:30:36;1.90;;;1.80;;
21438;SDS011;10880;50.302;18.736;2022-09-17T03:33:02;2.37;;;2.10;;
21438;SDS011;10880;50.302;18.736;2022-09-17T03:35:29;2.10;;;2.00;;
21438;SDS011;10880;50.302;18.736;2022-09-17T03:37:55;2.20;;;2.00;;
21438;SDS011;10880;50.302;18.736;2022-09-17T03:40:21;2.10;;;2.00;;
21438;SDS011;10880;50.302;18.736;2022-09-17T03:42:48;2.20;;;2.07;;
21438;SDS011;10880;50.302;18.736;2022-09-17T03:45:14;2.10;;;1.90;;
21438;SDS011;10880;50.302;18.736;2022-09-17T03:47:40;2.07;;;1.97;;
21438;SDS011;10880;50.302;18.736;2022-09-17T03:50:07;2.13;;;2.00;;
21438;SDS011;10880;50.302;18.736;2022-09-17T03:52:36;2.43;;;2.10;;
21438;SDS011;10880;50.302;18.736;2022-09-17T03:55:02;2.10;;;1.90;;
21438;SDS011;10880;50.302;18.736;2022-09-17T03:57:29;2.00;;;1.87;;
21438;SDS011;10880;50.302;18.736;2022-09-17T03:59:55;2.43;;;1.93;;
21438;SDS011;10880;50.302;18.736;2022-09-17T04:02:21;1.87;;;1.77;;
21438;SDS011;10880;50.302;18.736;2022-09-17T04:04:48;1.90;;;1.80;;
21438;SDS011;10880;50.302;18.736;2022-09-17T04:07:14;2.10;;;2.00;;
21438;SDS011;10880;50.302;18.736;2022-09-17T04:09:40;2.13;;;2.00;;
21438;SDS011;10880;50.302;18.736;2022-09-17T04:12:07;2.00;;;1.90;;
21438;SDS011;10880;50.302;18.736;2022-09-17T04:14:34;2.10;;;2.00;;
21438;SDS011;10880;50.302;18.736;2022-09-17T04:17:01;2.13;;;2.00;;
21438;SDS011;10880;50.302;18.736;2022-09-17T04:19:27;2.40;;;2.20;;
21438;SDS011;10880;50.302;18.736;2022-09-17T04:21:53;2.27;;;2.07;;
21438;SDS011;10880;50.302;18.736;2022-09-17T04:24:20;2.20;;;2.00;;
21438;SDS011;10880;50.302;18.736;2022-09-17T04:26:46;2.23;;;2.03;;
21438;SDS011;10880;50.302;18.736;2022-09-17T04:29:14;2.40;;;2.20;;
21438;SDS011;10880;50.302;18.736;2022-09-17T04:31:41;2.33;;;2.13;;
21438;SDS011;10880;50.302;18.736;2022-09-17T04:34:07;2.40;;;2.20;;
21438;SDS011;10880;50.302;18.736;2022-09-17T04:36:34;2.70;;;2.50;;
21438;SDS011;10880;50.302;18.736;2022-09-17T04:39:00;2.60;;;2.40;;
21438;SDS011;10880;50.302;18.736;2022-09-17T04:41:30;2.40;;;2.20;;
21438;SDS011;10880;50.302;18.736;2022-09-17T04:43:57;2.47;;;2.30;;
21438;SDS011;10880;50.302;18.736;2022-09-17T04:46:24;2.13;;;2.03;;
21438;SDS011;10880;50.302;18.736;2022-09-17T04:48:51;3.17;;;2.87;;
21438;SDS011;10880;50.302;18.736;2022-09-17T04:51:17;2.47;;;2.27;;
21438;SDS011;10880;50.302;18.736;2022-09-17T04:53:45;2.90;;;2.60;;
21438;SDS011;10880;50.302;18.736;2022-09-17T04:56:11;2.53;;;2.33;;
21438;SDS011;10880;50.302;18.736;2022-09-17T04:58:38;2.63;;;2.43;;
21438;SDS011;10880;50.302;18.736;2022-09-17T05:01:05;2.30;;;2.20;;
21438;SDS011;10880;50.302;18.736;2022-09-17T05:03:31;2.50;;;2.30;;
21438;SDS011;10880;50.302;18.736;2022-09-17T05:05:58;2.93;;;2.20;;
21438;SDS011;10880;50.302;18.736;2022-09-17T05:08:24;2.53;;;2.33;;
21438;SDS011;10880;50.302;18.736;2022-09-17T05:10:50;2.43;;;2.23;;
21438;SDS011;10880;50.302;18.736;2022-09-17T05:13:17;2.47;;;2.30;;
21438;SDS011;10880;50.302;18.736;2022-09-17T05:15:43;2.30;;;2.10;;
21438;SDS011;10880;50.302;18.736;2022-09-17T05:18:14;2.13;;;2.03;;
21438;SDS011;10880;50.302;18.736;2022-09-17T05:20:42;2.63;;;2.43;;
21438;SDS011;10880;50.302;18.736;2022-09-17T05:23:09;2.27;;;2.10;;
21438;SDS011;10880;50.302;18.736;2022-09-17T05:25:36;2.60;;;2.40;;
21438;SDS011;10880;50.302;18.736;2022-09-17T05:28:03;2.97;;;2.67;;
21438;SDS011;10880;50.302;18.736;2022-09-17T05:30:29;2.63;;;2.43;;
21438;SDS011;10880;50.302;18.736;2022-09-17T05:33:02;2.83;;;2.63;;
21438;SDS011;10880;50.302;18.736;2022-09-17T05:35:32;2.50;;;2.30;;
21438;SDS011;10880;50.302;18.736;2022-09-17T05:38:01;2.40;;;2.20;;
21438;SDS011;10880;50.302;18.736;2022-09-17T05:40:30;2.40;;;2.20;;
21438;SDS011;10880;50.302;18.736;2022-09-17T05:42:58;2.43;;;2.23;;
21438;SDS011;10880;50.302;18.736;2022-09-17T05:45:28;2.50;;;2.30;;
21438;SDS011;10880;50.302;18.736;2022-09-17T05:47:56;2.50;;;2.30;;
21438;SDS011;10880;50.302;18.736;2022-09-17T05:50:24;2.70;;;2.50;;
21438;SDS011;10880;50.302;18.736;2022-09-17T05:52:52;2.53;;;2.33;;
21438;SDS011;10880;50.302;18.736;2022-09-17T05:55:19;3.90;;;3.50;;
21438;SDS011;10880;50.302;18.736;2022-09-17T05:57:47;2.80;;;2.50;;
21438;SDS011;10880;50.302;18.736;2022-09-17T06:00:14;2.73;;;2.53;;
21438;SDS011;10880;50.302;18.736;2022-09-17T06:02:41;3.00;;;2.47;;
21438;SDS011;10880;50.302;18.736;2022-09-17T06:05:08;2.73;;;2.47;;
21438;SDS011;10880;50.302;18.736;2022-09-17T06:07:36;2.93;;;2.40;;
21438;SDS011;10880;50.302;18.736;2022-09-17T06:10:04;2.60;;;2.40;;
21438;SDS011;10880;50.302;18.736;2022-09-17T06:12:31;2.37;;;2.17;;
21438;SDS011;10880;50.302;18.736;2022-09-17T06:15:03;2.30;;;2.10;;
21438;SDS011;10880;50.302;18.736;2022-09-17T06:17:33;2.10;;;2.00;;
21438;SDS011;10880;50.302;18.736;2022-09-17T06:20:00;2.30;;;2.07;;
21438;SDS011;10880;50.302;18.736;2022-09-17T06:22:27;2.47;;;2.27;;
21438;SDS011;10880;50.302;18.736;2022-09-17T06:24:56;2.00;;;1.90;;
21438;SDS011;10880;50.302;18.736;2022-09-17T06:27:29;2.10;;;2.00;;
21438;SDS011;10880;50.302;18.736;2022-09-17T06:29:57;2.10;;;2.00;;
21438;SDS011;10880;50.302;18.736;2022-09-17T06:32:24;2.37;;;2.23;;
21438;SDS011;10880;50.302;18.736;2022-09-17T06:34:51;2.40;;;2.20;;
21438;SDS011;10880;50.302;18.736;2022-09-17T06:37:17;2.20;;;2.10;;
21438;SDS011;10880;50.302;18.736;2022-09-17T06:39:43;1.87;;;1.77;;
21438;SDS011;10880;50.302;18.736;2022-09-17T06:42:10;2.00;;;1.90;;
21438;SDS011;10880;50.302;18.736;2022-09-17T06:44:38;2.03;;;1.93;;
21438;SDS011;10880;50.302;18.736;2022-09-17T06:47:05;1.87;;;1.77;;
21438;SDS011;10880;50.302;18.736;2022-09-17T06:49:32;1.83;;;1.73;;
21438;SDS011;10880;50.302;18.736;2022-09-17T06:51:59;1.83;;;1.73;;
21438;SDS011;10880;50.302;18.736;2022-09-17T06:54:25;1.73;;;1.63;;
21438;SDS011;10880;50.302;18.736;2022-09-17T06:56:51;1.80;;;1.70;;
21438;SDS011;10880;50.302;18.736;2022-09-17T06:59:21;2.10;;;2.00;;
21438;SDS011;10880;50.302;18.736;2022-09-17T07:01:47;1.70;;;1.60;;
21438;SDS011;10880;50.302;18.736;2022-09-17T07:04:16;1.70;;;1.60;;
21438;SDS011;10880;50.302;18.736;2022-09-17T07:06:43;2.03;;;1.90;;
21438;SDS011;10880;50.302;18.736;2022-09-17T07:09:10;2.10;;;1.97;;
21438;SDS011;10880;50.302;18.736;2022-09-17T07:11:37;1.70;;;1.60;;
21438;SDS011;10880;50.302;18.736;2022-09-17T07:14:04;1.70;;;1.60;;
21438;SDS011;10880;50.302;18.736;2022-09-17T07:16:31;2.23;;;1.80;;
21438;SDS011;10880;50.302;18.736;2022-09-17T07:19:02;2.17;;;1.60;;
21438;SDS011;10880;50.302;18.736;2022-09-17T07:21:29;1.40;;;1.37;;
21438;SDS011;10880;50.302;18.736;2022-09-17T07:23:56;1.67;;;1.57;;
21438;SDS011;10880;50.302;18.736;2022-09-17T07:26:22;1.60;;;1.50;;
21438;SDS011;10880;50.302;18.736;2022-09-17T07:28:48;1.73;;;1.63;;
21438;SDS011;10880;50.302;18.736;2022-09-17T07:31:15;1.57;;;1.50;;
21438;SDS011;10880;50.302;18.736;2022-09-17T07:33:41;1.80;;;1.70;;
21438;SDS011;10880;50.302;18.736;2022-09-17T07:36:12;1.67;;;1.57;;
21438;SDS011;10880;50.302;18.736;2022-09-17T07:38:44;1.60;;;1.50;;
21438;SDS011;10880;50.302;18.736;2022-09-17T07:41:11;1.50;;;1.40;;
21438;SDS011;10880;50.302;18.736;2022-09-17T07:43:39;1.60;;;1.60;;
21438;SDS011;10880;50.302;18.736;2022-09-17T07:46:07;1.43;;;1.43;;
21438;SDS011;10880;50.302;18.736;2022-09-17T07:48:46;1.60;;;1.50;;
21438;SDS011;10880;50.302;18.736;2022-09-17T07:53:44;1.60;;;1.50;;
21438;SDS011;10880;50.302;18.736;2022-09-17T07:56:12;1.40;;;1.40;;
21438;SDS011;10880;50.302;18.736;2022-09-17T07:58:39;1.37;;;1.37;;
21438;SDS011;10880;50.302;18.736;2022-09-17T08:01:07;1.37;;;1.37;;
21438;SDS011;10880;50.302;18.736;2022-09-17T08:03:36;1.80;;;1.50;;
21438;SDS011;10880;50.302;18.736;2022-09-17T08:06:05;1.40;;;1.40;;
21438;SDS011;10880;50.302;18.736;2022-09-17T08:08:34;1.60;;;1.50;;
21438;SDS011;10880;50.302;18.736;2022-09-17T08:11:03;1.50;;;1.50;;
21438;SDS011;10880;50.302;18.736;2022-09-17T08:13:36;1.53;;;1.47;;
21438;SDS011;10880;50.302;18.736;2022-09-17T08:16:04;1.57;;;1.50;;
21438;SDS011;10880;50.302;18.736;2022-09-17T08:18:42;1.30;;;1.30;;
21438;SDS011;10880;50.302;18.736;2022-09-17T08:21:13;1.50;;;1.40;;
21438;SDS011;10880;50.302;18.736;2022-09-17T08:23:44;1.73;;;1.63;;
21438;SDS011;10880;50.302;18.736;2022-09-17T08:26:14;1.50;;;1.50;;
21438;SDS011;10880;50.302;18.736;2022-09-17T08:28:46;1.60;;;1.50;;
21438;SDS011;10880;50.302;18.736;2022-09-17T08:31:15;1.40;;;1.30;;
21438;SDS011;10880;50.302;18.736;2022-09-17T08:33:44;1.67;;;1.57;;
21438;SDS011;10880;50.302;18.736;2022-09-17T08:36:15;1.70;;;1.60;;
21438;SDS011;10880;50.302;18.736;2022-09-17T08:38:51;1.40;;;1.40;;
21438;SDS011;10880;50.302;18.736;2022-09-17T08:44:24;1.50;;;1.50;;
21438;SDS011;10880;50.302;18.736;2022-09-17T08:50:14;1.40;;;1.40;;
21438;SDS011;10880;50.302;18.736;2022-09-17T08:58:41;1.43;;;1.40;;
21438;SDS011;10880;50.302;18.736;2022-09-17T09:07:04;1.50;;;1.40;;
21438;SDS011;10880;50.302;18.736;2022-09-17T09:09:48;1.60;;;1.50;;
21438;SDS011;10880;50.302;18.736;2022-09-17T09:12:40;1.50;;;1.40;;
21438;SDS011;10880;50.302;18.736;2022-09-17T09:27:02;1.50;;;1.40;;
21438;SDS011;10880;50.302;18.736;2022-09-17T09:35:37;1.43;;;1.43;;
21438;SDS011;10880;50.302;18.736;2022-09-17T09:38:27;1.30;;;1.30;;
21438;SDS011;10880;50.302;18.736;2022-09-17T09:41:12;1.30;;;1.30;;
21438;SDS011;10880;50.302;18.736;2022-09-17T09:44:03;2.00;;;1.90;;
21438;SDS011;10880;50.302;18.736;2022-09-17T09:46:39;1.70;;;1.60;;
21438;SDS011;10880;50.302;18.736;2022-09-17T09:52:05;1.43;;;1.40;;
21438;SDS011;10880;50.302;18.736;2022-09-17T09:57:17;1.50;;;1.50;;
21438;SDS011;10880;50.302;18.736;2022-09-17T09:59:48;1.60;;;1.50;;
21438;SDS011;10880;50.302;18.736;2022-09-17T10:02:15;1.50;;;1.40;;
21438;SDS011;10880;50.302;18.736;2022-09-17T10:04:47;1.60;;;1.50;;
21438;SDS011;10880;50.302;18.736;2022-09-17T10:07:13;1.43;;;1.43;;
21438;SDS011;10880;50.302;18.736;2022-09-17T10:09:44;3.03;;;1.37;;
21438;SDS011;10880;50.302;18.736;2022-09-17T10:12:14;1.37;;;1.37;;
21438;SDS011;10880;50.302;18.736;2022-09-17T10:14:45;1.60;;;1.50;;
21438;SDS011;10880;50.302;18.736;2022-09-17T10:19:44;1.40;;;1.40;;
21438;SDS011;10880;50.302;18.736;2022-09-17T10:22:28;1.60;;;1.50;;
21438;SDS011;10880;50.302;18.736;2022-09-17T10:24:58;1.37;;;1.37;;
21438;SDS011;10880;50.302;18.736;2022-09-17T10:27:25;1.37;;;1.37;;
21438;SDS011;10880;50.302;18.736;2022-09-17T10:32:34;1.47;;;1.40;;
21438;SDS011;10880;50.302;18.736;2022-09-17T10:35:03;1.57;;;1.47;;
21438;SDS011;10880;50.302;18.736;2022-09-17T10:42:46;1.50;;;1.40;;
21438;SDS011;10880;50.302;18.736;2022-09-17T10:45:38;1.30;;;1.30;;
21438;SDS011;10880;50.302;18.736;2022-09-17T10:48:14;1.63;;;1.53;;
21438;SDS011;10880;50.302;18.736;2022-09-17T10:50:51;1.60;;;1.50;;
21438;SDS011;10880;50.302;18.736;2022-09-17T10:53:19;1.60;;;1.50;;
21438;SDS011;10880;50.302;18.736;2022-09-17T11:04:24;1.47;;;1.40;;
21438;SDS011;10880;50.302;18.736;2022-09-17T11:10:10;2.20;;;2.10;;
21438;SDS011;10880;50.302;18.736;2022-09-17T11:13:03;1.87;;;1.77;;
21438;SDS011;10880;50.302;18.736;2022-09-17T11:15:45;1.90;;;1.80;;
21438;SDS011;10880;50.302;18.736;2022-09-17T11:24:07;1.60;;;1.50;;
21438;SDS011;10880;50.302;18.736;2022-09-17T11:27:01;1.60;;;1.50;;
21438;SDS011;10880;50.302;18.736;2022-09-17T11:30:13;1.60;;;1.50;;
21438;SDS011;10880;50.302;18.736;2022-09-17T11:32:51;1.47;;;1.40;;
21438;SDS011;10880;50.302;18.736;2022-09-17T11:35:29;1.70;;;1.60;;
21438;SDS011;10880;50.302;18.736;2022-09-17T11:38:16;1.70;;;1.60;;
21438;SDS011;10880;50.302;18.736;2022-09-17T11:43:35;1.70;;;1.60;;
21438;SDS011;10880;50.302;18.736;2022-09-17T11:46:12;1.73;;;1.60;;
21438;SDS011;10880;50.302;18.736;2022-09-17T11:48:45;1.77;;;1.67;;
21438;SDS011;10880;50.302;18.736;2022-09-17T11:51:25;1.60;;;1.50;;
21438;SDS011;10880;50.302;18.736;2022-09-17T11:54:26;1.60;;;1.50;;
21438;SDS011;10880;50.302;18.736;2022-09-17T11:57:08;1.70;;;1.60;;
21438;SDS011;10880;50.302;18.736;2022-09-17T11:59:41;1.63;;;1.53;;
21438;SDS011;10880;50.302;18.736;2022-09-17T12:02:18;1.83;;;1.73;;
21438;SDS011;10880;50.302;18.736;2022-09-17T12:05:04;1.93;;;1.83;;
21438;SDS011;10880;50.302;18.736;2022-09-17T12:07:35;1.90;;;1.80;;
21438;SDS011;10880;50.302;18.736;2022-09-17T12:13:39;1.50;;;1.40;;
21438;SDS011;10880;50.302;18.736;2022-09-17T12:16:35;1.60;;;1.50;;
21438;SDS011;10880;50.302;18.736;2022-09-17T12:19:36;1.63;;;1.53;;
21438;SDS011;10880;50.302;18.736;2022-09-17T12:22:34;1.50;;;1.40;;
21438;SDS011;10880;50.302;18.736;2022-09-17T12:25:03;1.20;;;1.20;;
21438;SDS011;10880;50.302;18.736;2022-09-17T12:41:45;1.80;;;1.70;;
21438;SDS011;10880;50.302;18.736;2022-09-17T12:47:22;1.80;;;1.70;;
21438;SDS011;10880;50.302;18.736;2022-09-17T12:53:18;1.70;;;1.60;;
21438;SDS011;10880;50.302;18.736;2022-09-17T12:56:14;1.60;;;1.50;;
21438;SDS011;10880;50.302;18.736;2022-09-17T12:59:03;1.50;;;1.40;;
21438;SDS011;10880;50.302;18.736;2022-09-17T13:01:44;1.40;;;1.40;;
21438;SDS011;10880;50.302;18.736;2022-09-17T13:13:02;2.30;;;2.10;;
21438;SDS011;10880;50.302;18.736;2022-09-17T13:15:44;1.90;;;1.80;;
21438;SDS011;10880;50.302;18.736;2022-09-17T13:18:13;1.80;;;1.70;;
21438;SDS011;10880;50.302;18.736;2022-09-17T13:23:38;1.57;;;1.47;;
21438;SDS011;10880;50.302;18.736;2022-09-17T13:26:15;1.60;;;1.50;;
21438;SDS011;10880;50.302;18.736;2022-09-17T13:28:45;1.60;;;1.50;;
21438;SDS011;10880;50.302;18.736;2022-09-17T13:31:22;1.70;;;1.60;;
21438;SDS011;10880;50.302;18.736;2022-09-17T13:34:26;1.67;;;1.57;;
21438;SDS011;10880;50.302;18.736;2022-09-17T13:36:58;1.70;;;1.60;;
21438;SDS011;10880;50.302;18.736;2022-09-17T13:42:45;1.60;;;1.50;;
21438;SDS011;10880;50.302;18.736;2022-09-17T13:45:14;1.30;;;1.30;;
21438;SDS011;10880;50.302;18.736;2022-09-17T13:47:51;1.40;;;1.40;;
21438;SDS011;10880;50.302;18.736;2022-09-17T13:50:34;1.60;;;1.50;;
21438;SDS011;10880;50.302;18.736;2022-09-17T13:53:05;1.40;;;1.30;;
21438;SDS011;10880;50.302;18.736;2022-09-17T13:55:41;1.53;;;1.43;;
21438;SDS011;10880;50.302;18.736;2022-09-17T13:58:11;1.50;;;1.40;;
21438;SDS011;10880;50.302;18.736;2022-09-17T14:01:01;1.40;;;1.40;;
21438;SDS011;10880;50.302;18.736;2022-09-17T14:21:41;1.40;;;1.40;;
21438;SDS011;10880;50.302;18.736;2022-09-17T14:24:23;1.37;;;1.37;;
21438;SDS011;10880;50.302;18.736;2022-09-17T14:35:33;1.50;;;1.40;;
21438;SDS011;10880;50.302;18.736;2022-09-17T14:40:46;2.23;;;2.10;;
21438;SDS011;10880;50.302;18.736;2022-09-17T14:49:32;1.60;;;1.50;;
21438;SDS011;10880;50.302;18.736;2022-09-17T14:52:00;1.50;;;1.40;;
21438;SDS011;10880;50.302;18.736;2022-09-17T14:54:28;1.63;;;1.53;;
21438;SDS011;10880;50.302;18.736;2022-09-17T15:05:00;1.80;;;1.70;;
21438;SDS011;10880;50.302;18.736;2022-09-17T15:07:49;1.80;;;1.70;;
21438;SDS011;10880;50.302;18.736;2022-09-17T15:10:16;1.70;;;1.60;;
21438;SDS011;10880;50.302;18.736;2022-09-17T15:12:46;1.53;;;1.47;;
21438;SDS011;10880;50.302;18.736;2022-09-17T15:15:16;1.50;;;1.50;;
21438;SDS011;10880;50.302;18.736;2022-09-17T15:17:47;1.70;;;1.60;;
21438;SDS011;10880;50.302;18.736;2022-09-17T15:20:16;1.50;;;1.40;;
21438;SDS011;10880;50.302;18.736;2022-09-17T15:22:52;1.97;;;1.87;;
21438;SDS011;10880;50.302;18.736;2022-09-17T15:25:47;2.20;;;2.10;;
21438;SDS011;10880;50.302;18.736;2022-09-17T15:28:20;2.00;;;1.90;;
21438;SDS011;10880;50.302;18.736;2022-09-17T15:30:54;1.90;;;1.80;;
21438;SDS011;10880;50.302;18.736;2022-09-17T15:33:21;1.90;;;1.80;;
21438;SDS011;10880;50.302;18.736;2022-09-17T15:38:47;2.00;;;1.90;;
21438;SDS011;10880;50.302;18.736;2022-09-17T15:44:16;4.03;;;3.53;;
21438;SDS011;10880;50.302;18.736;2022-09-17T15:46:47;4.17;;;3.43;;
21438;SDS011;10880;50.302;18.736;2022-09-17T15:49:27;2.83;;;2.63;;
21438;SDS011;10880;50.302;18.736;2022-09-17T15:51:53;2.70;;;2.50;;
21438;SDS011;10880;50.302;18.736;2022-09-17T15:54:29;2.53;;;2.33;;
21438;SDS011;10880;50.302;18.736;2022-09-17T15:56:58;2.70;;;2.30;;
21438;SDS011;10880;50.302;18.736;2022-09-17T15:59:29;3.23;;;2.93;;
21438;SDS011;10880;50.302;18.736;2022-09-17T16:01:58;4.07;;;3.30;;
21438;SDS011;10880;50.302;18.736;2022-09-17T16:04:30;3.17;;;2.57;;
21438;SDS011;10880;50.302;18.736;2022-09-17T16:12:07;1.73;;;1.63;;
21438;SDS011;10880;50.302;18.736;2022-09-17T16:14:41;1.70;;;1.60;;
21438;SDS011;10880;50.302;18.736;2022-09-17T16:17:21;1.77;;;1.67;;
21438;SDS011;10880;50.302;18.736;2022-09-17T16:19:48;1.70;;;1.60;;
21438;SDS011;10880;50.302;18.736;2022-09-17T16:22:15;1.60;;;1.50;;
21438;SDS011;10880;50.302;18.736;2022-09-17T16:24:41;1.53;;;1.50;;
21438;SDS011;10880;50.302;18.736;2022-09-17T16:27:09;1.60;;;1.50;;
21438;SDS011;10880;50.302;18.736;2022-09-17T16:29:42;1.50;;;1.40;;
21438;SDS011;10880;50.302;18.736;2022-09-17T16:32:14;2.63;;;2.33;;
21438;SDS011;10880;50.302;18.736;2022-09-17T16:34:40;5.70;;;3.87;;
21438;SDS011;10880;50.302;18.736;2022-09-17T16:37:08;4.87;;;3.47;;
21438;SDS011;10880;50.302;18.736;2022-09-17T16:39:36;7.23;;;4.80;;
21438;SDS011;10880;50.302;18.736;2022-09-17T16:42:03;9.20;;;5.50;;
21438;SDS011;10880;50.302;18.736;2022-09-17T16:44:29;7.80;;;5.03;;
21438;SDS011;10880;50.302;18.736;2022-09-17T16:46:56;6.07;;;4.40;;
21438;SDS011;10880;50.302;18.736;2022-09-17T16:49:24;4.50;;;3.40;;
21438;SDS011;10880;50.302;18.736;2022-09-17T16:51:50;3.97;;;3.03;;
21438;SDS011;10880;50.302;18.736;2022-09-17T16:54:17;3.50;;;2.83;;
21438;SDS011;10880;50.302;18.736;2022-09-17T16:56:43;2.60;;;2.40;;
21438;SDS011;10880;50.302;18.736;2022-09-17T16:59:10;2.50;;;2.30;;
21438;SDS011;10880;50.302;18.736;2022-09-17T17:01:36;2.27;;;2.07;;
21438;SDS011;10880;50.302;18.736;2022-09-17T17:04:03;2.27;;;2.07;;
21438;SDS011;10880;50.302;18.736;2022-09-17T17:06:29;2.43;;;2.23;;
21438;SDS011;10880;50.302;18.736;2022-09-17T17:08:56;3.07;;;2.40;;
21438;SDS011;10880;50.302;18.736;2022-09-17T17:11:25;6.33;;;4.13;;
21438;SDS011;10880;50.302;18.736;2022-09-17T17:13:55;6.83;;;4.33;;
21438;SDS011;10880;50.302;18.736;2022-09-17T17:16:22;9.73;;;5.70;;
21438;SDS011;10880;50.302;18.736;2022-09-17T17:18:50;12.90;;;7.70;;
21438;SDS011;10880;50.302;18.736;2022-09-17T17:21:18;18.53;;;10.47;;
21438;SDS011;10880;50.302;18.736;2022-09-17T17:23:47;34.30;;;19.67;;
21438;SDS011;10880;50.302;18.736;2022-09-17T17:26:21;39.67;;;24.50;;
21438;SDS011;10880;50.302;18.736;2022-09-17T17:28:48;32.40;;;19.67;;
21438;SDS011;10880;50.302;18.736;2022-09-17T17:31:14;21.70;;;13.57;;
21438;SDS011;10880;50.302;18.736;2022-09-17T17:33:42;16.07;;;9.70;;
21438;SDS011;10880;50.302;18.736;2022-09-17T17:36:10;13.73;;;8.63;;
21438;SDS011;10880;50.302;18.736;2022-09-17T17:38:37;14.27;;;8.73;;
21438;SDS011;10880;50.302;18.736;2022-09-17T17:41:07;11.70;;;7.10;;
21438;SDS011;10880;50.302;18.736;2022-09-17T17:43:38;7.37;;;5.27;;
21438;SDS011;10880;50.302;18.736;2022-09-17T17:46:06;4.67;;;3.70;;
21438;SDS011;10880;50.302;18.736;2022-09-17T17:48:33;3.87;;;3.10;;
21438;SDS011;10880;50.302;18.736;2022-09-17T17:51:03;4.57;;;3.60;;
21438;SDS011;10880;50.302;18.736;2022-09-17T17:53:31;5.03;;;3.47;;
21438;SDS011;10880;50.302;18.736;2022-09-17T17:56:00;3.50;;;2.80;;
21438;SDS011;10880;50.302;18.736;2022-09-17T17:58:31;3.87;;;3.00;;
21438;SDS011;10880;50.302;18.736;2022-09-17T18:00:59;2.53;;;2.20;;
21438;SDS011;10880;50.302;18.736;2022-09-17T18:03:25;2.73;;;2.53;;
21438;SDS011;10880;50.302;18.736;2022-09-17T18:05:54;5.63;;;4.23;;
21438;SDS011;10880;50.302;18.736;2022-09-17T18:08:22;6.83;;;4.70;;
21438;SDS011;10880;50.302;18.736;2022-09-17T18:10:55;8.67;;;5.90;;
21438;SDS011;10880;50.302;18.736;2022-09-17T18:13:25;6.93;;;5.03;;
21438;SDS011;10880;50.302;18.736;2022-09-17T18:15:52;5.93;;;4.47;;
21438;SDS011;10880;50.302;18.736;2022-09-17T18:18:21;6.00;;;4.63;;
21438;SDS011;10880;50.302;18.736;2022-09-17T18:20:48;3.80;;;3.40;;